sensor_id;sensor_type;location;lat;lon;timestamp;temperature;humidity
11511;DHT22;5812;48.864;9.190;2023-02-24T00:00:06;9.00;1.00
11511;DHT22;5812;48.864;9.190;2023-02-24T00:02:50;9.00;1.00
11511;DHT22;5812;48.864;9.190;2023-02-24T00:05:17;9.00;1.00
11511;DHT22;5812;48.864;9.190;2023-02-24T00:07:42;9.00;1.00
11511;DHT22;5812;48.864;9.190;2023-02-24T00:10:09;9.00;1.00
11511;DHT22;5812;48.864;9.190;2023-02-24T00:12:35;9.00;1.00
11511;DHT22;5812;48.864;9.190;2023-02-24T00:15:00;8.90;1.00
11511;DHT22;5812;48.864;9.190;2023-02-24T00:17:26;8.90;1.00
11511;DHT22;5812;48.864;9.190;2023-02-24T00:19:55;8.90;1.00
11511;DHT22;5812;48.864;9.190;2023-02-24T00:22:20;8.90;1.00
11511;DHT22;5812;48.864;9.190;2023-02-24T00:24:46;8.90;1.00
11511;DHT22;5812;48.864;9.190;2023-02-24T00:27:12;8.80;1.00
11511;DHT22;5812;48.864;9.190;2023-02-24T00:29:38;8.90;1.00
11511;DHT22;5812;48.864;9.190;2023-02-24T00:32:06;8.80;1.00
11511;DHT22;5812;48.864;9.190;2023-02-24T00:34:37;8.80;1.00
11511;DHT22;5812;48.864;9.190;2023-02-24T00:37:04;8.80;1.00
11511;DHT22;5812;48.864;9.190;2023-02-24T00:39:34;8.90;1.00
11511;DHT22;5812;48.864;9.190;2023-02-24T00:42:02;8.80;1.00
11511;DHT22;5812;48.864;9.190;2023-02-24T00:44:33;8.80;1.00
11511;DHT22;5812;48.864;9.190;2023-02-24T00:46:59;8.80;1.00
11511;DHT22;5812;48.864;9.190;2023-02-24T00:49:29;8.80;1.00
11511;DHT22;5812;48.864;9.190;2023-02-24T00:51:56;8.80;1.00
11511;DHT22;5812;48.864;9.190;2023-02-24T00:54:22;8.70;1.00
11511;DHT22;5812;48.864;9.190;2023-02-24T00:56:52;8.70;1.00
11511;DHT22;5812;48.864;9.190;2023-02-24T00:59:18;8.70;1.00
11511;DHT22;5812;48.864;9.190;2023-02-24T01:01:45;8.70;1.00
11511;DHT22;5812;48.864;9.190;2023-02-24T01:04:11;8.70;12.40
11511;DHT22;5812;48.864;9.190;2023-02-24T01:06:48;8.70;51.70
11511;DHT22;5812;48.864;9.190;2023-02-24T01:09:17;8.70;60.20
11511;DHT22;5812;48.864;9.190;2023-02-24T01:11:45;8.60;91.70
11511;DHT22;5812;48.864;9.190;2023-02-24T01:14:29;8.60;96.00
11511;DHT22;5812;48.864;9.190;2023-02-24T01:16:55;8.60;99.90
11511;DHT22;5812;48.864;9.190;2023-02-24T01:19:24;8.60;99.90
11511;DHT22;5812;48.864;9.190;2023-02-24T01:21:54;8.40;96.00
11511;DHT22;5812;48.864;9.190;2023-02-24T01:24:23;8.40;95.70
11511;DHT22;5812;48.864;9.190;2023-02-24T01:26:49;8.40;90.00
11511;DHT22;5812;48.864;9.190;2023-02-24T01:29:14;8.50;92.40
11511;DHT22;5812;48.864;9.190;2023-02-24T01:31:40;8.50;92.90
11511;DHT22;5812;48.864;9.190;2023-02-24T01:34:11;8.40;94.40
11511;DHT22;5812;48.864;9.190;2023-02-24T01:36:39;8.40;94.60
11511;DHT22;5812;48.864;9.190;2023-02-24T01:39:07;8.40;80.60
11511;DHT22;5812;48.864;9.190;2023-02-24T01:41:39;8.40;67.00
11511;DHT22;5812;48.864;9.190;2023-02-24T01:46:40;8.40;85.90
11511;DHT22;5812;48.864;9.190;2023-02-24T01:51:44;8.30;99.90
11511;DHT22;5812;48.864;9.190;2023-02-24T01:54:14;8.30;99.90
11511;DHT22;5812;48.864;9.190;2023-02-24T01:56:40;8.30;99.90
11511;DHT22;5812;48.864;9.190;2023-02-24T01:59:07;8.30;99.90
11511;DHT22;5812;48.864;9.190;2023-02-24T02:01:35;8.30;99.90
11511;DHT22;5812;48.864;9.190;2023-02-24T02:06:49;8.30;99.90
11511;DHT22;5812;48.864;9.190;2023-02-24T02:09:15;8.30;99.90
11511;DHT22;5812;48.864;9.190;2023-02-24T02:11:41;8.30;99.90
11511;DHT22;5812;48.864;9.190;2023-02-24T02:14:08;8.20;99.90
11511;DHT22;5812;48.864;9.190;2023-02-24T02:16:41;8.20;99.90
11511;DHT22;5812;48.864;9.190;2023-02-24T02:19:35;8.20;99.90
11511;DHT22;5812;48.864;9.190;2023-02-24T02:25:07;8.20;99.90
11511;DHT22;5812;48.864;9.190;2023-02-24T02:28:03;8.30;99.90
11511;DHT22;5812;48.864;9.190;2023-02-24T02:36:33;8.20;99.90
11511;DHT22;5812;48.864;9.190;2023-02-24T02:46:57;8.10;99.90
11511;DHT22;5812;48.864;9.190;2023-02-24T02:49:37;8.10;99.90
11511;DHT22;5812;48.864;9.190;2023-02-24T02:52:09;8.10;99.90
11511;DHT22;5812;48.864;9.190;2023-02-24T02:54:41;8.10;99.90
11511;DHT22;5812;48.864;9.190;2023-02-24T02:57:23;8.10;99.90
11511;DHT22;5812;48.864;9.190;2023-02-24T03:00:08;8.10;99.90
11511;DHT22;5812;48.864;9.190;2023-02-24T03:02:39;8.10;99.90
11511;DHT22;5812;48.864;9.190;2023-02-24T03:05:08;8.10;99.90
11511;DHT22;5812;48.864;9.190;2023-02-24T03:07:39;8.10;99.90
11511;DHT22;5812;48.864;9.190;2023-02-24T03:10:21;8.10;99.90
11511;DHT22;5812;48.864;9.190;2023-02-24T03:12:53;8.10;99.90
11511;DHT22;5812;48.864;9.190;2023-02-24T03:15:22;8.10;99.90
11511;DHT22;5812;48.864;9.190;2023-02-24T03:17:53;8.00;99.90
11511;DHT22;5812;48.864;9.190;2023-02-24T03:20:28;8.00;99.90
11511;DHT22;5812;48.864;9.190;2023-02-24T03:25:32;8.00;99.90
11511;DHT22;5812;48.864;9.190;2023-02-24T03:28:07;8.00;99.90
11511;DHT22;5812;48.864;9.190;2023-02-24T03:30:58;8.00;99.90
11511;DHT22;5812;48.864;9.190;2023-02-24T03:33:35;8.00;99.90
11511;DHT22;5812;48.864;9.190;2023-02-24T03:36:03;8.00;99.90
11511;DHT22;5812;48.864;9.190;2023-02-24T03:38:31;8.00;99.90
11511;DHT22;5812;48.864;9.190;2023-02-24T03:40:57;8.00;99.90
11511;DHT22;5812;48.864;9.190;2023-02-24T03:43:34;8.00;99.90
11511;DHT22;5812;48.864;9.190;2023-02-24T03:46:01;8.00;99.90
11511;DHT22;5812;48.864;9.190;2023-02-24T03:48:29;8.10;99.90
11511;DHT22;5812;48.864;9.190;2023-02-24T03:50:55;8.00;99.90
11511;DHT22;5812;48.864;9.190;2023-02-24T03:53:37;8.00;99.90
11511;DHT22;5812;48.864;9.190;2023-02-24T03:57:00;8.00;99.90
11511;DHT22;5812;48.864;9.190;2023-02-24T03:59:35;8.00;99.90
11511;DHT22;5812;48.864;9.190;2023-02-24T04:02:19;8.00;99.90
11511;DHT22;5812;48.864;9.190;2023-02-24T04:04:49;7.90;99.90
11511;DHT22;5812;48.864;9.190;2023-02-24T04:12:51;7.90;99.90
11511;DHT22;5812;48.864;9.190;2023-02-24T04:15:26;7.90;99.90
11511;DHT22;5812;48.864;9.190;2023-02-24T04:17:57;7.80;99.90
11511;DHT22;5812;48.864;9.190;2023-02-24T04:20:26;7.80;99.90
11511;DHT22;5812;48.864;9.190;2023-02-24T04:23:25;7.80;99.90
11511;DHT22;5812;48.864;9.190;2023-02-24T04:25:53;7.80;99.90
11511;DHT22;5812;48.864;9.190;2023-02-24T04:28:22;7.70;99.90
11511;DHT22;5812;48.864;9.190;2023-02-24T04:30:52;7.80;99.90
11511;DHT22;5812;48.864;9.190;2023-02-24T04:33:18;7.70;99.90
11511;DHT22;5812;48.864;9.190;2023-02-24T04:35:47;7.70;99.90
11511;DHT22;5812;48.864;9.190;2023-02-24T04:38:15;7.70;99.90
11511;DHT22;5812;48.864;9.190;2023-02-24T04:40:40;7.70;99.90
11511;DHT22;5812;48.864;9.190;2023-02-24T04:43:07;7.60;99.90
11511;DHT22;5812;48.864;9.190;2023-02-24T04:45:33;7.60;99.90
11511;DHT22;5812;48.864;9.190;2023-02-24T04:48:00;7.60;99.90
11511;DHT22;5812;48.864;9.190;2023-02-24T04:50:36;7.60;99.90
11511;DHT22;5812;48.864;9.190;2023-02-24T04:53:04;7.60;99.90
11511;DHT22;5812;48.864;9.190;2023-02-24T04:55:36;7.50;99.90
11511;DHT22;5812;48.864;9.190;2023-02-24T04:58:05;7.60;99.90
11511;DHT22;5812;48.864;9.190;2023-02-24T05:00:30;7.50;99.90
11511;DHT22;5812;48.864;9.190;2023-02-24T05:03:01;7.60;99.90
11511;DHT22;5812;48.864;9.190;2023-02-24T05:05:27;7.60;99.90
11511;DHT22;5812;48.864;9.190;2023-02-24T05:07:55;7.50;99.90
11511;DHT22;5812;48.864;9.190;2023-02-24T05:10:21;7.50;99.90
11511;DHT22;5812;48.864;9.190;2023-02-24T05:12:53;7.50;99.90
11511;DHT22;5812;48.864;9.190;2023-02-24T05:15:18;7.50;99.90
11511;DHT22;5812;48.864;9.190;2023-02-24T05:17:44;7.40;99.90
11511;DHT22;5812;48.864;9.190;2023-02-24T05:20:10;7.40;99.90
11511;DHT22;5812;48.864;9.190;2023-02-24T05:22:54;7.40;99.90
11511;DHT22;5812;48.864;9.190;2023-02-24T05:25:21;7.40;99.90
11511;DHT22;5812;48.864;9.190;2023-02-24T05:27:49;7.40;99.90
11511;DHT22;5812;48.864;9.190;2023-02-24T05:30:15;7.40;99.90
11511;DHT22;5812;48.864;9.190;2023-02-24T05:32:42;7.40;99.90
11511;DHT22;5812;48.864;9.190;2023-02-24T05:35:08;7.50;99.90
11511;DHT22;5812;48.864;9.190;2023-02-24T05:37:38;7.40;99.90
11511;DHT22;5812;48.864;9.190;2023-02-24T05:40:07;7.40;99.90
11511;DHT22;5812;48.864;9.190;2023-02-24T05:42:34;7.40;99.90
11511;DHT22;5812;48.864;9.190;2023-02-24T05:45:00;7.40;99.90
11511;DHT22;5812;48.864;9.190;2023-02-24T05:47:26;7.40;99.90
11511;DHT22;5812;48.864;9.190;2023-02-24T05:49:52;7.40;99.90
11511;DHT22;5812;48.864;9.190;2023-02-24T05:52:21;7.40;99.90
11511;DHT22;5812;48.864;9.190;2023-02-24T05:54:46;7.40;99.90
11511;DHT22;5812;48.864;9.190;2023-02-24T05:57:16;7.50;99.90
11511;DHT22;5812;48.864;9.190;2023-02-24T05:59:47;7.40;99.90
11511;DHT22;5812;48.864;9.190;2023-02-24T06:02:16;7.40;99.90
11511;DHT22;5812;48.864;9.190;2023-02-24T06:04:44;7.40;99.90
11511;DHT22;5812;48.864;9.190;2023-02-24T06:07:20;7.30;99.90
11511;DHT22;5812;48.864;9.190;2023-02-24T06:09:48;7.40;99.90
11511;DHT22;5812;48.864;9.190;2023-02-24T06:12:16;7.60;99.90
11511;DHT22;5812;48.864;9.190;2023-02-24T06:14:42;7.40;99.90
11511;DHT22;5812;48.864;9.190;2023-02-24T06:17:09;7.30;99.90
11511;DHT22;5812;48.864;9.190;2023-02-24T06:19:35;8.00;99.90
11511;DHT22;5812;48.864;9.190;2023-02-24T06:22:01;7.30;99.90
11511;DHT22;5812;48.864;9.190;2023-02-24T06:24:28;7.30;99.90
11511;DHT22;5812;48.864;9.190;2023-02-24T06:26:55;7.20;99.90
11511;DHT22;5812;48.864;9.190;2023-02-24T06:29:35;7.20;99.90
11511;DHT22;5812;48.864;9.190;2023-02-24T06:32:04;7.20;99.90
11511;DHT22;5812;48.864;9.190;2023-02-24T06:34:33;7.20;99.90
11511;DHT22;5812;48.864;9.190;2023-02-24T06:36:59;7.20;24.90
11511;DHT22;5812;48.864;9.190;2023-02-24T06:39:24;7.20;27.60
11511;DHT22;5812;48.864;9.190;2023-02-24T06:41:50;7.20;1.00
11511;DHT22;5812;48.864;9.190;2023-02-24T06:44:17;7.20;2.00
11511;DHT22;5812;48.864;9.190;2023-02-24T06:46:43;7.20;1.00
11511;DHT22;5812;48.864;9.190;2023-02-24T06:49:10;7.20;1.00
11511;DHT22;5812;48.864;9.190;2023-02-24T06:51:37;7.30;1.00
11511;DHT22;5812;48.864;9.190;2023-02-24T06:54:04;7.50;1.00
11511;DHT22;5812;48.864;9.190;2023-02-24T06:56:31;7.20;1.00
11511;DHT22;5812;48.864;9.190;2023-02-24T06:59:03;7.20;1.00
11511;DHT22;5812;48.864;9.190;2023-02-24T07:01:31;7.20;1.00
11511;DHT22;5812;48.864;9.190;2023-02-24T07:03:59;7.30;1.00
11511;DHT22;5812;48.864;9.190;2023-02-24T07:06:47;7.20;1.00
11511;DHT22;5812;48.864;9.190;2023-02-24T07:09:15;7.20;1.00
11511;DHT22;5812;48.864;9.190;2023-02-24T07:11:46;7.20;1.00
11511;DHT22;5812;48.864;9.190;2023-02-24T07:14:13;8.40;1.00
11511;DHT22;5812;48.864;9.190;2023-02-24T07:16:40;7.30;1.00
11511;DHT22;5812;48.864;9.190;2023-02-24T07:19:11;7.40;1.00
11511;DHT22;5812;48.864;9.190;2023-02-24T07:21:41;7.30;1.00
11511;DHT22;5812;48.864;9.190;2023-02-24T07:24:12;7.60;1.00
11511;DHT22;5812;48.864;9.190;2023-02-24T07:26:41;7.30;1.00
11511;DHT22;5812;48.864;9.190;2023-02-24T07:29:10;7.40;1.00
11511;DHT22;5812;48.864;9.190;2023-02-24T07:31:37;7.40;1.00
11511;DHT22;5812;48.864;9.190;2023-02-24T07:34:03;7.50;1.00
11511;DHT22;5812;48.864;9.190;2023-02-24T07:36:29;7.50;99.90
11511;DHT22;5812;48.864;9.190;2023-02-24T07:38:57;7.40;99.90
11511;DHT22;5812;48.864;9.190;2023-02-24T07:41:24;7.40;99.90
11511;DHT22;5812;48.864;9.190;2023-02-24T07:43:51;7.30;99.90
11511;DHT22;5812;48.864;9.190;2023-02-24T07:46:20;7.30;99.90
11511;DHT22;5812;48.864;9.190;2023-02-24T07:48:50;7.40;1.00
11511;DHT22;5812;48.864;9.190;2023-02-24T07:51:19;7.40;99.90
11511;DHT22;5812;48.864;9.190;2023-02-24T07:53:49;7.40;99.90
11511;DHT22;5812;48.864;9.190;2023-02-24T07:56:18;7.40;99.90
11511;DHT22;5812;48.864;9.190;2023-02-24T07:58:48;7.50;1.00
11511;DHT22;5812;48.864;9.190;2023-02-24T08:01:22;7.90;99.90
11511;DHT22;5812;48.864;9.190;2023-02-24T08:03:51;7.60;99.90
11511;DHT22;5812;48.864;9.190;2023-02-24T08:06:23;7.50;99.90
11511;DHT22;5812;48.864;9.190;2023-02-24T08:08:56;7.50;99.90
11511;DHT22;5812;48.864;9.190;2023-02-24T08:11:35;7.50;99.90
11511;DHT22;5812;48.864;9.190;2023-02-24T08:14:02;7.50;99.90
11511;DHT22;5812;48.864;9.190;2023-02-24T08:16:30;7.60;99.90
11511;DHT22;5812;48.864;9.190;2023-02-24T08:19:08;7.70;99.90
11511;DHT22;5812;48.864;9.190;2023-02-24T08:21:38;7.60;99.90
11511;DHT22;5812;48.864;9.190;2023-02-24T08:24:11;7.70;99.90
11511;DHT22;5812;48.864;9.190;2023-02-24T08:26:45;7.90;99.90
11511;DHT22;5812;48.864;9.190;2023-02-24T08:29:12;8.10;99.90
11511;DHT22;5812;48.864;9.190;2023-02-24T08:31:38;8.10;99.90
11511;DHT22;5812;48.864;9.190;2023-02-24T08:34:03;8.00;99.90
11511;DHT22;5812;48.864;9.190;2023-02-24T08:36:29;7.90;99.90
11511;DHT22;5812;48.864;9.190;2023-02-24T08:38:54;7.90;99.90
11511;DHT22;5812;48.864;9.190;2023-02-24T08:41:24;8.60;99.90
11511;DHT22;5812;48.864;9.190;2023-02-24T08:44:09;8.00;99.90
11511;DHT22;5812;48.864;9.190;2023-02-24T08:46:35;8.00;99.90
11511;DHT22;5812;48.864;9.190;2023-02-24T08:49:02;7.90;99.90
11511;DHT22;5812;48.864;9.190;2023-02-24T08:51:36;8.00;99.90
11511;DHT22;5812;48.864;9.190;2023-02-24T08:54:10;8.10;99.90
11511;DHT22;5812;48.864;9.190;2023-02-24T08:56:40;8.00;99.90
11511;DHT22;5812;48.864;9.190;2023-02-24T08:59:15;8.10;99.90
11511;DHT22;5812;48.864;9.190;2023-02-24T09:02:05;8.10;92.40
11511;DHT22;5812;48.864;9.190;2023-02-24T09:04:59;8.20;99.90
11511;DHT22;5812;48.864;9.190;2023-02-24T09:07:31;8.40;99.90
11511;DHT22;5812;48.864;9.190;2023-02-24T09:10:00;8.30;99.90
11511;DHT22;5812;48.864;9.190;2023-02-24T09:12:27;8.20;99.90
11511;DHT22;5812;48.864;9.190;2023-02-24T09:14:57;8.20;99.90
11511;DHT22;5812;48.864;9.190;2023-02-24T09:17:27;8.30;99.90
11511;DHT22;5812;48.864;9.190;2023-02-24T09:20:21;8.30;99.90
11511;DHT22;5812;48.864;9.190;2023-02-24T09:23:06;8.30;99.90
11511;DHT22;5812;48.864;9.190;2023-02-24T09:25:37;8.40;86.60
11511;DHT22;5812;48.864;9.190;2023-02-24T09:28:09;8.30;99.90
11511;DHT22;5812;48.864;9.190;2023-02-24T09:30:40;8.30;99.90
11511;DHT22;5812;48.864;9.190;2023-02-24T09:33:35;8.50;75.30
11511;DHT22;5812;48.864;9.190;2023-02-24T09:36:10;8.60;1.00
11511;DHT22;5812;48.864;9.190;2023-02-24T09:38:49;8.70;16.20
11511;DHT22;5812;48.864;9.190;2023-02-24T09:41:34;8.90;1.00
11511;DHT22;5812;48.864;9.190;2023-02-24T09:44:26;8.90;1.00
11511;DHT22;5812;48.864;9.190;2023-02-24T09:47:18;8.90;1.00
11511;DHT22;5812;48.864;9.190;2023-02-24T09:50:04;8.90;1.00
11511;DHT22;5812;48.864;9.190;2023-02-24T09:52:39;9.20;1.00
11511;DHT22;5812;48.864;9.190;2023-02-24T09:55:22;9.20;99.90
11511;DHT22;5812;48.864;9.190;2023-02-24T10:01:21;9.40;99.90
11511;DHT22;5812;48.864;9.190;2023-02-24T10:03:55;9.50;99.90
11511;DHT22;5812;48.864;9.190;2023-02-24T10:07:22;9.40;99.90
11511;DHT22;5812;48.864;9.190;2023-02-24T10:09:27;9.20;99.90
11511;DHT22;5812;48.864;9.190;2023-02-24T10:14:42;9.20;99.90
11511;DHT22;5812;48.864;9.190;2023-02-24T10:17:20;9.10;99.90
11511;DHT22;5812;48.864;9.190;2023-02-24T10:20:13;9.00;1.00
11511;DHT22;5812;48.864;9.190;2023-02-24T10:22:58;9.00;99.90
11511;DHT22;5812;48.864;9.190;2023-02-24T10:25:45;9.10;99.90
11511;DHT22;5812;48.864;9.190;2023-02-24T10:28:47;9.10;1.00
11511;DHT22;5812;48.864;9.190;2023-02-24T10:31:26;9.00;99.90
11511;DHT22;5812;48.864;9.190;2023-02-24T10:34:06;9.00;99.90
11511;DHT22;5812;48.864;9.190;2023-02-24T10:36:34;8.70;1.00
11511;DHT22;5812;48.864;9.190;2023-02-24T10:39:19;8.80;1.00
11511;DHT22;5812;48.864;9.190;2023-02-24T10:44:46;8.70;1.00
11511;DHT22;5812;48.864;9.190;2023-02-24T10:47:30;8.60;1.00
11511;DHT22;5812;48.864;9.190;2023-02-24T10:50:01;8.50;1.00
11511;DHT22;5812;48.864;9.190;2023-02-24T10:52:37;8.50;1.00
11511;DHT22;5812;48.864;9.190;2023-02-24T10:58:00;8.50;1.00
11511;DHT22;5812;48.864;9.190;2023-02-24T11:00:45;8.60;1.00
11511;DHT22;5812;48.864;9.190;2023-02-24T11:03:50;8.60;1.00
11511;DHT22;5812;48.864;9.190;2023-02-24T11:06:30;8.50;1.00
11511;DHT22;5812;48.864;9.190;2023-02-24T11:09:05;8.50;1.00
11511;DHT22;5812;48.864;9.190;2023-02-24T11:12:20;8.60;1.00
11511;DHT22;5812;48.864;9.190;2023-02-24T11:15:16;8.60;99.90
11511;DHT22;5812;48.864;9.190;2023-02-24T11:18:01;8.50;1.00
11511;DHT22;5812;48.864;9.190;2023-02-24T11:20:44;8.50;1.00
11511;DHT22;5812;48.864;9.190;2023-02-24T11:23:18;8.40;1.00
11511;DHT22;5812;48.864;9.190;2023-02-24T11:25:53;8.40;1.00
11511;DHT22;5812;48.864;9.190;2023-02-24T11:31:16;8.50;1.00
11511;DHT22;5812;48.864;9.190;2023-02-24T11:33:54;8.30;1.00
11511;DHT22;5812;48.864;9.190;2023-02-24T11:36:29;8.40;1.00
11511;DHT22;5812;48.864;9.190;2023-02-24T11:39:17;8.40;1.00
11511;DHT22;5812;48.864;9.190;2023-02-24T11:41:54;8.40;1.00
11511;DHT22;5812;48.864;9.190;2023-02-24T11:44:48;8.60;1.00
11511;DHT22;5812;48.864;9.190;2023-02-24T11:47:22;8.60;1.00
11511;DHT22;5812;48.864;9.190;2023-02-24T11:52:42;8.80;99.90
11511;DHT22;5812;48.864;9.190;2023-02-24T11:55:26;8.80;99.90
11511;DHT22;5812;48.864;9.190;2023-02-24T11:57:53;8.80;1.00
11511;DHT22;5812;48.864;9.190;2023-02-24T12:00:26;8.90;99.90
11511;DHT22;5812;48.864;9.190;2023-02-24T12:03:19;8.80;99.90
11511;DHT22;5812;48.864;9.190;2023-02-24T12:05:49;8.80;99.90
11511;DHT22;5812;48.864;9.190;2023-02-24T12:08:34;9.10;99.90
11511;DHT22;5812;48.864;9.190;2023-02-24T12:11:35;9.20;99.90
11511;DHT22;5812;48.864;9.190;2023-02-24T12:14:14;9.40;99.90
11511;DHT22;5812;48.864;9.190;2023-02-24T12:16:45;9.30;99.90
11511;DHT22;5812;48.864;9.190;2023-02-24T12:19:44;9.60;99.90
11511;DHT22;5812;48.864;9.190;2023-02-24T12:22:14;9.30;99.90
11511;DHT22;5812;48.864;9.190;2023-02-24T12:24:51;9.30;99.90
11511;DHT22;5812;48.864;9.190;2023-02-24T12:33:38;9.80;99.90
11511;DHT22;5812;48.864;9.190;2023-02-24T12:53:17;10.40;99.90
11511;DHT22;5812;48.864;9.190;2023-02-24T12:58:21;10.80;81.70
11511;DHT22;5812;48.864;9.190;2023-02-24T13:00:59;10.50;74.70
11511;DHT22;5812;48.864;9.190;2023-02-24T13:06:15;10.70;51.30
11511;DHT22;5812;48.864;9.190;2023-02-24T13:09:00;10.50;81.90
11511;DHT22;5812;48.864;9.190;2023-02-24T13:11:36;10.20;99.90
11511;DHT22;5812;48.864;9.190;2023-02-24T13:14:25;10.30;99.90
11511;DHT22;5812;48.864;9.190;2023-02-24T13:19:33;9.70;99.90
11511;DHT22;5812;48.864;9.190;2023-02-24T13:24:33;9.70;99.90
11511;DHT22;5812;48.864;9.190;2023-02-24T13:27:18;9.70;99.90
11511;DHT22;5812;48.864;9.190;2023-02-24T13:29:53;9.80;99.90
11511;DHT22;5812;48.864;9.190;2023-02-24T13:32:29;9.70;99.90
11511;DHT22;5812;48.864;9.190;2023-02-24T13:37:51;9.80;99.90
11511;DHT22;5812;48.864;9.190;2023-02-24T13:42:54;9.60;99.90
11511;DHT22;5812;48.864;9.190;2023-02-24T13:45:21;10.10;99.90
11511;DHT22;5812;48.864;9.190;2023-02-24T13:54:02;10.10;99.90
11511;DHT22;5812;48.864;9.190;2023-02-24T13:56:56;10.10;99.90
11511;DHT22;5812;48.864;9.190;2023-02-24T14:02:19;10.10;80.30
11511;DHT22;5812;48.864;9.190;2023-02-24T14:04:51;9.90;97.40
11511;DHT22;5812;48.864;9.190;2023-02-24T14:07:23;9.90;99.90
11511;DHT22;5812;48.864;9.190;2023-02-24T14:09:59;9.00;99.90
11511;DHT22;5812;48.864;9.190;2023-02-24T14:12:29;9.80;99.90
11511;DHT22;5812;48.864;9.190;2023-02-24T14:14:55;9.70;99.90
11511;DHT22;5812;48.864;9.190;2023-02-24T14:17:32;9.70;99.90
11511;DHT22;5812;48.864;9.190;2023-02-24T14:20:20;9.70;99.90
11511;DHT22;5812;48.864;9.190;2023-02-24T14:22:51;9.70;99.90
11511;DHT22;5812;48.864;9.190;2023-02-24T14:25:18;9.60;99.90
11511;DHT22;5812;48.864;9.190;2023-02-24T14:27:46;9.70;99.90
11511;DHT22;5812;48.864;9.190;2023-02-24T14:30:30;9.70;99.90
11511;DHT22;5812;48.864;9.190;2023-02-24T14:32:57;9.60;99.90
11511;DHT22;5812;48.864;9.190;2023-02-24T14:37:59;9.60;99.90
11511;DHT22;5812;48.864;9.190;2023-02-24T14:40:25;9.50;99.90
11511;DHT22;5812;48.864;9.190;2023-02-24T14:42:53;9.30;99.90
11511;DHT22;5812;48.864;9.190;2023-02-24T14:45:22;9.40;99.90
11511;DHT22;5812;48.864;9.190;2023-02-24T14:47:50;9.40;99.90
11511;DHT22;5812;48.864;9.190;2023-02-24T14:50:19;9.50;99.90
11511;DHT22;5812;48.864;9.190;2023-02-24T14:53:08;9.40;99.90
11511;DHT22;5812;48.864;9.190;2023-02-24T14:55:40;9.40;99.90
11511;DHT22;5812;48.864;9.190;2023-02-24T14:58:23;9.40;99.90
11511;DHT22;5812;48.864;9.190;2023-02-24T15:01:04;9.30;99.90
11511;DHT22;5812;48.864;9.190;2023-02-24T15:03:43;9.40;99.90
11511;DHT22;5812;48.864;9.190;2023-02-24T15:06:24;9.30;99.90
11511;DHT22;5812;48.864;9.190;2023-02-24T15:09:03;9.30;99.90
11511;DHT22;5812;48.864;9.190;2023-02-24T15:11:30;9.30;99.90
11511;DHT22;5812;48.864;9.190;2023-02-24T15:13:58;9.30;99.90
11511;DHT22;5812;48.864;9.190;2023-02-24T15:16:28;9.30;99.90
11511;DHT22;5812;48.864;9.190;2023-02-24T15:18:58;9.30;99.90
11511;DHT22;5812;48.864;9.190;2023-02-24T15:21:33;9.20;99.90
11511;DHT22;5812;48.864;9.190;2023-02-24T15:24:16;9.30;99.90
11511;DHT22;5812;48.864;9.190;2023-02-24T15:26:49;9.20;99.90
11511;DHT22;5812;48.864;9.190;2023-02-24T15:29:21;9.20;99.90
11511;DHT22;5812;48.864;9.190;2023-02-24T15:31:50;9.20;99.90
11511;DHT22;5812;48.864;9.190;2023-02-24T15:34:19;9.20;99.90
11511;DHT22;5812;48.864;9.190;2023-02-24T15:36:46;9.20;99.90
11511;DHT22;5812;48.864;9.190;2023-02-24T15:39:21;9.20;99.90
11511;DHT22;5812;48.864;9.190;2023-02-24T15:41:50;9.10;99.90
11511;DHT22;5812;48.864;9.190;2023-02-24T15:44:24;9.20;99.90
11511;DHT22;5812;48.864;9.190;2023-02-24T15:46:50;9.20;99.90
11511;DHT22;5812;48.864;9.190;2023-02-24T15:49:16;9.10;99.90
11511;DHT22;5812;48.864;9.190;2023-02-24T15:51:47;9.10;99.90
11511;DHT22;5812;48.864;9.190;2023-02-24T15:54:28;9.10;99.90
11511;DHT22;5812;48.864;9.190;2023-02-24T15:56:57;9.10;99.90
11511;DHT22;5812;48.864;9.190;2023-02-24T15:59:24;9.10;99.90
11511;DHT22;5812;48.864;9.190;2023-02-24T16:01:49;9.10;99.90
11511;DHT22;5812;48.864;9.190;2023-02-24T16:04:18;9.10;99.90
11511;DHT22;5812;48.864;9.190;2023-02-24T16:06:45;9.10;99.90
11511;DHT22;5812;48.864;9.190;2023-02-24T16:09:28;9.00;99.90
11511;DHT22;5812;48.864;9.190;2023-02-24T16:11:56;9.00;99.90
11511;DHT22;5812;48.864;9.190;2023-02-24T16:14:23;9.00;99.90
11511;DHT22;5812;48.864;9.190;2023-02-24T16:16:49;9.00;99.90
11511;DHT22;5812;48.864;9.190;2023-02-24T16:19:15;9.00;99.90
11511;DHT22;5812;48.864;9.190;2023-02-24T16:21:41;8.90;99.90
11511;DHT22;5812;48.864;9.190;2023-02-24T16:24:07;8.90;99.90
11511;DHT22;5812;48.864;9.190;2023-02-24T16:26:35;8.80;99.90
11511;DHT22;5812;48.864;9.190;2023-02-24T16:29:02;8.80;99.90
11511;DHT22;5812;48.864;9.190;2023-02-24T16:31:28;8.80;99.90
11511;DHT22;5812;48.864;9.190;2023-02-24T16:33:54;8.80;99.90
11511;DHT22;5812;48.864;9.190;2023-02-24T16:36:24;8.70;99.90
11511;DHT22;5812;48.864;9.190;2023-02-24T16:38:49;8.70;99.90
11511;DHT22;5812;48.864;9.190;2023-02-24T16:41:16;8.70;99.90
11511;DHT22;5812;48.864;9.190;2023-02-24T16:43:42;8.70;99.90
11511;DHT22;5812;48.864;9.190;2023-02-24T16:46:13;8.70;99.90
11511;DHT22;5812;48.864;9.190;2023-02-24T16:48:40;8.70;99.90
11511;DHT22;5812;48.864;9.190;2023-02-24T16:51:07;8.70;99.90
11511;DHT22;5812;48.864;9.190;2023-02-24T16:53:33;8.70;99.90
11511;DHT22;5812;48.864;9.190;2023-02-24T16:55:59;8.70;99.90
11511;DHT22;5812;48.864;9.190;2023-02-24T16:58:25;8.80;99.90
11511;DHT22;5812;48.864;9.190;2023-02-24T17:00:53;8.80;99.90
11511;DHT22;5812;48.864;9.190;2023-02-24T17:03:25;8.70;99.90
11511;DHT22;5812;48.864;9.190;2023-02-24T17:05:51;8.70;99.90
11511;DHT22;5812;48.864;9.190;2023-02-24T17:08:18;8.70;99.90
11511;DHT22;5812;48.864;9.190;2023-02-24T17:10:44;8.60;99.90
11511;DHT22;5812;48.864;9.190;2023-02-24T17:13:18;8.60;99.90
11511;DHT22;5812;48.864;9.190;2023-02-24T17:15:44;8.60;99.90
11511;DHT22;5812;48.864;9.190;2023-02-24T17:18:10;8.60;99.90
11511;DHT22;5812;48.864;9.190;2023-02-24T17:20:38;8.50;99.90
11511;DHT22;5812;48.864;9.190;2023-02-24T17:23:04;8.50;99.90
11511;DHT22;5812;48.864;9.190;2023-02-24T17:25:30;8.50;99.90
11511;DHT22;5812;48.864;9.190;2023-02-24T17:27:56;8.50;99.90
11511;DHT22;5812;48.864;9.190;2023-02-24T17:30:33;8.40;99.90
11511;DHT22;5812;48.864;9.190;2023-02-24T17:32:59;8.50;99.90
11511;DHT22;5812;48.864;9.190;2023-02-24T17:35:26;8.50;99.90
11511;DHT22;5812;48.864;9.190;2023-02-24T17:37:52;8.40;99.90
11511;DHT22;5812;48.864;9.190;2023-02-24T17:40:18;8.50;99.90
11511;DHT22;5812;48.864;9.190;2023-02-24T17:42:44;8.50;99.90
11511;DHT22;5812;48.864;9.190;2023-02-24T17:45:11;8.40;99.90
11511;DHT22;5812;48.864;9.190;2023-02-24T17:47:37;8.40;99.90
11511;DHT22;5812;48.864;9.190;2023-02-24T17:50:05;8.40;99.90
11511;DHT22;5812;48.864;9.190;2023-02-24T17:52:31;8.50;99.90
11511;DHT22;5812;48.864;9.190;2023-02-24T17:54:57;8.40;99.90
11511;DHT22;5812;48.864;9.190;2023-02-24T17:57:23;8.40;99.90
11511;DHT22;5812;48.864;9.190;2023-02-24T17:59:49;8.40;99.90
11511;DHT22;5812;48.864;9.190;2023-02-24T18:02:16;8.50;99.90
11511;DHT22;5812;48.864;9.190;2023-02-24T18:04:42;8.40;99.90
11511;DHT22;5812;48.864;9.190;2023-02-24T18:07:09;8.40;99.90
11511;DHT22;5812;48.864;9.190;2023-02-24T18:09:35;8.40;99.90
11511;DHT22;5812;48.864;9.190;2023-02-24T18:12:01;8.40;99.90
11511;DHT22;5812;48.864;9.190;2023-02-24T18:14:27;8.40;99.90
11511;DHT22;5812;48.864;9.190;2023-02-24T18:16:53;8.40;99.90